createdAt,value
2022-08-05T00:01:27.880Z,100849.69
2022-08-05T00:03:54.850Z,100859.41
2022-08-05T00:06:30.792Z,100862.22
2022-08-05T00:09:00.720Z,100867.38
2022-08-05T00:11:34.533Z,100869.19
2022-08-05T00:14:12.955Z,100870.03
2022-08-05T00:16:52.369Z,100868.94
2022-08-05T00:19:19.686Z,100857.88
2022-08-05T00:21:48.684Z,100870.31
2022-08-05T00:24:18.844Z,100867.88
2022-08-05T00:26:52.191Z,100862.56
2022-08-05T00:29:22.792Z,100848.59
2022-08-05T00:32:10.081Z,100862.09
2022-08-05T00:34:56.931Z,100834.63
2022-08-05T00:37:27.217Z,100846.28
2022-08-05T00:40:13.420Z,100846.69
2022-08-05T00:42:44.243Z,100846.44
2022-08-05T00:45:15.845Z,100851.84
2022-08-05T00:47:56.640Z,100834.47
2022-08-05T00:50:25.505Z,100859.91
2022-08-05T00:52:53.395Z,100859.81
2022-08-05T00:55:21.855Z,100869.78
2022-08-05T00:57:58.127Z,100870.16
2022-08-05T01:00:26.253Z,100868.22
2022-08-05T01:02:53.078Z,100857.50
2022-08-05T01:05:19.868Z,100880.13
2022-08-05T01:08:41.080Z,100875.00
2022-08-05T01:11:00.904Z,100879.84
2022-08-05T01:13:58.642Z,100869.22
2022-08-05T01:16:50.946Z,100869.59
2022-08-05T01:19:30.083Z,100861.34
2022-08-05T01:22:36.081Z,100831.78
2022-08-05T01:25:41.148Z,100837.53
2022-08-05T01:28:29.902Z,100863.13
2022-08-05T01:31:07.454Z,100863.81
2022-08-05T01:33:39.061Z,100887.56
2022-08-05T01:36:16.158Z,100880.84
2022-08-05T01:38:46.034Z,100891.06
2022-08-05T01:41:18.146Z,100881.47
2022-08-05T01:43:50.033Z,100935.50
2022-08-05T01:46:41.333Z,100960.38
2022-08-05T01:49:23.042Z,100982.41
2022-08-05T01:51:54.947Z,100979.94
2022-08-05T01:54:25.655Z,100970.31
2022-08-05T01:58:13.082Z,100976.63
2022-08-05T01:59:47.024Z,100984.56
2022-08-05T02:02:16.039Z,100990.06
2022-08-05T02:04:46.113Z,100982.97
2022-08-05T02:07:21.928Z,100990.13
2022-08-05T02:09:51.133Z,100957.59
2022-08-05T02:12:44.820Z,100984.03
2022-08-05T02:15:33.563Z,100993.66
2022-08-05T02:18:31.907Z,100975.94
2022-08-05T02:21:06.532Z,100993.19
2022-08-05T02:23:44.919Z,101000.00
2022-08-05T02:26:17.173Z,101013.09
2022-08-05T02:28:46.371Z,101011.78
2022-08-05T02:31:21.115Z,101028.50
2022-08-05T02:33:57.245Z,101040.25
2022-08-05T02:36:27.436Z,101039.25
2022-08-05T02:38:56.787Z,101016.75
2022-08-05T02:41:28.426Z,100997.53
2022-08-05T02:44:12.189Z,100979.28
2022-08-05T02:46:43.927Z,100917.09
2022-08-05T02:49:21.826Z,100877.75
2022-08-05T02:52:02.944Z,100876.69
2022-08-05T02:54:35.687Z,100839.84
2022-08-05T02:57:10.117Z,100858.19
2022-08-05T02:59:55.504Z,100858.22
2022-08-05T03:02:28.287Z,100841.88
2022-08-05T03:04:57.416Z,100835.09
2022-08-05T03:07:48.530Z,100833.03
2022-08-05T03:10:15.593Z,100863.00
2022-08-05T03:12:51.901Z,100900.94
2022-08-05T03:15:19.092Z,100901.41
2022-08-05T03:17:45.943Z,100900.91
2022-08-05T03:20:13.382Z,100906.69
2022-08-05T03:22:44.236Z,100931.19
2022-08-05T03:26:03.765Z,100946.09
2022-08-05T03:28:01.518Z,100953.69
2022-08-05T03:30:34.082Z,100957.63
2022-08-05T03:33:06.095Z,100979.66
2022-08-05T03:35:33.868Z,100960.66
2022-08-05T03:38:07.523Z,100955.19
2022-08-05T03:40:34.225Z,100981.31
2022-08-05T03:43:58.503Z,100982.47
2022-08-05T03:45:57.129Z,100981.47
2022-08-05T03:48:25.956Z,100962.78
2022-08-05T03:52:38.910Z,100917.34
2022-08-05T03:55:50.833Z,100938.59
2022-08-05T03:57:35.135Z,100926.50
2022-08-05T04:00:15.916Z,100890.09
2022-08-05T04:02:57.872Z,100883.91
2022-08-05T04:05:33.436Z,100884.91
2022-08-05T04:08:03.596Z,100899.78
2022-08-05T04:10:37.888Z,100905.41
2022-08-05T04:13:07.235Z,100904.94
2022-08-05T04:15:36.165Z,100898.16
2022-08-05T04:18:08.018Z,100889.72
2022-08-05T04:20:36.455Z,100908.09
2022-08-05T04:23:03.017Z,100919.34
2022-08-05T04:25:57.620Z,100932.56
2022-08-05T04:28:17.710Z,100895.19
2022-08-05T04:30:44.837Z,100910.56
2022-08-05T04:33:12.114Z,100886.78
2022-08-05T04:36:16.103Z,100917.16
2022-08-05T04:38:39.471Z,100896.19
2022-08-05T04:41:07.379Z,100920.47
2022-08-05T04:43:36.344Z,100919.31
2022-08-05T04:46:04.572Z,100906.75
2022-08-05T04:48:31.873Z,100923.06
2022-08-05T04:51:02.514Z,100920.91
2022-08-05T04:53:33.392Z,100921.25
2022-08-05T04:56:33.693Z,100914.31
2022-08-05T04:58:49.033Z,100881.00
2022-08-05T05:01:15.858Z,100897.03
2022-08-05T05:04:02.322Z,100895.38
2022-08-05T05:06:39.654Z,100913.19
2022-08-05T05:09:17.466Z,100926.59
2022-08-05T05:11:53.878Z,100934.84
2022-08-05T05:14:27.708Z,100933.50
2022-08-05T05:17:01.371Z,100931.50
2022-08-05T05:19:36.976Z,100926.56
2022-08-05T05:22:23.986Z,100932.16
2022-08-05T05:24:58.465Z,100936.63
2022-08-05T05:27:45.168Z,100926.38
2022-08-05T05:30:15.634Z,100940.63
2022-08-05T05:32:57.081Z,100941.47
2022-08-05T05:35:29.122Z,100940.47
2022-08-05T05:38:03.013Z,100952.38
2022-08-05T05:40:32.093Z,100953.69
2022-08-05T05:42:59.815Z,100941.50
2022-08-05T05:45:29.173Z,100930.28
2022-08-05T05:48:06.280Z,100935.72
2022-08-05T05:50:43.820Z,100959.47
2022-08-05T05:53:21.983Z,100963.66
2022-08-05T05:55:52.219Z,100951.72
2022-08-05T05:58:31.938Z,100961.00
2022-08-05T06:01:12.051Z,100945.94
2022-08-05T06:04:02.108Z,100966.63
2022-08-05T06:06:33.017Z,100961.72
2022-08-05T06:09:00.033Z,100981.72
2022-08-05T06:11:26.592Z,100961.53
2022-08-05T06:13:56.102Z,100966.81
2022-08-05T06:16:30.697Z,100974.28
2022-08-05T06:19:01.130Z,100980.75
2022-08-05T06:21:36.514Z,100990.84
2022-08-05T06:24:11.823Z,100999.63
2022-08-05T06:26:51.558Z,100995.19
2022-08-05T06:29:42.910Z,100978.81
2022-08-05T06:32:21.095Z,100981.28
2022-08-05T06:34:53.518Z,101018.69
2022-08-05T06:37:57.507Z,101014.22
2022-08-05T06:40:10.335Z,101014.09
2022-08-05T06:42:37.626Z,101004.50
2022-08-05T06:45:08.877Z,101011.16
2022-08-05T06:48:37.162Z,101003.72
2022-08-05T06:50:23.073Z,101009.16
2022-08-05T06:52:58.787Z,101011.97
2022-08-05T06:55:36.198Z,100993.13
2022-08-05T06:58:20.594Z,101005.84
2022-08-05T07:00:50.039Z,101013.94
2022-08-05T07:03:17.013Z,101012.44
2022-08-05T07:05:44.055Z,101021.56
2022-08-05T07:08:12.781Z,101029.97
2022-08-05T07:10:53.191Z,101033.59
2022-08-05T07:13:57.817Z,101041.88
2022-08-05T07:17:59.113Z,101039.41
2022-08-05T07:22:28.559Z,101054.09
2022-08-05T07:25:23.417Z,101061.53
2022-08-05T07:27:58.852Z,101076.28
2022-08-05T07:30:32.590Z,101078.91
2022-08-05T07:33:01.073Z,101077.41
2022-08-05T07:36:03.087Z,101080.41
2022-08-05T07:38:32.250Z,101084.72
2022-08-05T07:42:07.407Z,101085.19
2022-08-05T07:43:56.886Z,101088.97
2022-08-05T07:46:28.090Z,101086.81
2022-08-05T07:49:02.172Z,101101.03
2022-08-05T07:51:37.581Z,101102.03
2022-08-05T07:54:08.324Z,101111.91
2022-08-05T07:57:00.063Z,101104.13
2022-08-05T07:59:31.114Z,101113.03
2022-08-05T08:02:07.682Z,101119.53
2022-08-05T08:04:42.016Z,101117.88
2022-08-05T08:07:08.542Z,101126.81
2022-08-05T08:09:35.303Z,101137.50
2022-08-05T08:12:13.609Z,101129.56
2022-08-05T08:14:47.016Z,101132.22
2022-08-05T08:17:16.194Z,101141.81
2022-08-05T08:20:20.996Z,101133.75
2022-08-05T08:22:31.061Z,101150.88
2022-08-05T08:25:03.262Z,101157.16
2022-08-05T08:27:39.874Z,101150.69
2022-08-05T08:30:29.414Z,101152.16
2022-08-05T08:32:58.097Z,101160.91
2022-08-05T08:35:35.262Z,101133.06
2022-08-05T08:38:08.334Z,101157.59
2022-08-05T08:40:39.393Z,101159.75
2022-08-05T08:45:16.187Z,101164.91
2022-08-05T08:45:54.991Z,101176.97
2022-08-05T08:48:43.005Z,101182.28
2022-08-05T08:52:01.683Z,101177.13
2022-08-05T08:53:57.000Z,101183.41
2022-08-05T08:56:27.025Z,101192.81
2022-08-05T08:58:53.881Z,101204.56
2022-08-05T09:01:20.815Z,101201.59
2022-08-05T09:03:54.332Z,101209.38
2022-08-05T09:06:29.614Z,101208.25
2022-08-05T09:08:59.442Z,101197.16
2022-08-05T09:11:51.071Z,101207.78
2022-08-05T09:14:56.546Z,101214.25
2022-08-05T09:17:05.638Z,101203.16
2022-08-05T09:19:55.048Z,101206.00
2022-08-05T09:22:31.185Z,101217.59
2022-08-05T09:25:13.663Z,101226.09
2022-08-05T09:28:04.890Z,101231.03
2022-08-05T09:30:34.247Z,101226.78
2022-08-05T09:33:04.977Z,101242.69
2022-08-05T09:35:32.809Z,101246.31
2022-08-05T09:38:16.439Z,101239.56
2022-08-05T09:40:52.131Z,101244.34
2022-08-05T09:43:46.169Z,101250.66
2022-08-05T09:46:29.526Z,101248.03
2022-08-05T09:49:07.832Z,101252.66
2022-08-05T09:51:44.459Z,101252.66
2022-08-05T09:54:16.124Z,101250.81
2022-08-05T09:56:52.297Z,101266.25
2022-08-05T09:59:24.099Z,101256.31
2022-08-05T10:01:57.764Z,101259.38
2022-08-05T10:04:35.926Z,101259.38
2022-08-05T10:07:14.067Z,101263.34
2022-08-05T10:10:04.101Z,101278.94
2022-08-05T10:12:49.848Z,101287.69
2022-08-05T10:15:21.627Z,101286.56
2022-08-05T10:18:03.428Z,101292.34
2022-08-05T10:20:32.058Z,101292.34
2022-08-05T10:23:00.904Z,101295.97
2022-08-05T10:25:27.784Z,101298.78
2022-08-05T10:28:13.272Z,101302.72
2022-08-05T10:32:49.685Z,101301.53
2022-08-05T10:33:35.158Z,101317.41
2022-08-05T10:36:04.479Z,101307.75
2022-08-05T10:38:33.049Z,101305.81
2022-08-05T10:41:23.409Z,101316.88
2022-08-05T10:44:05.757Z,101318.09
2022-08-05T10:46:43.566Z,101313.63
2022-08-05T10:49:16.894Z,101307.06
2022-08-05T10:51:57.519Z,101319.34
2022-08-05T10:54:56.363Z,101322.44
2022-08-05T10:57:29.496Z,101332.25
2022-08-05T11:00:20.665Z,101322.63
2022-08-05T11:03:23.857Z,101338.25
2022-08-05T11:06:15.250Z,101332.38
2022-08-05T11:09:18.703Z,101329.25
2022-08-05T11:11:59.210Z,101322.28
2022-08-05T11:18:00.484Z,101325.53
2022-08-05T11:20:43.745Z,101329.19
2022-08-05T11:23:33.239Z,101335.28
2022-08-05T11:26:29.154Z,101343.19
2022-08-05T11:29:12.788Z,101339.97
2022-08-05T11:31:58.204Z,101323.56
2022-08-05T11:34:57.255Z,101331.47
2022-08-05T11:38:29.410Z,101332.53
2022-08-05T11:41:34.170Z,101332.56
2022-08-05T11:44:04.925Z,101345.41
2022-08-05T11:47:10.314Z,101338.28
2022-08-05T11:49:27.831Z,101339.81
2022-08-05T11:51:54.710Z,101348.72
2022-08-05T11:54:33.954Z,101340.25
2022-08-05T11:57:08.162Z,101342.09
2022-08-05T11:59:49.712Z,101335.28
2022-08-05T12:02:23.884Z,101337.50
2022-08-05T12:04:59.397Z,101343.03
2022-08-05T12:08:03.554Z,101341.81
2022-08-05T12:10:19.586Z,101335.88
2022-08-05T12:12:58.455Z,101337.09
2022-08-05T12:15:35.971Z,101341.03
2022-08-05T12:18:10.766Z,101352.75
2022-08-05T12:20:39.107Z,101336.31
2022-08-05T12:23:12.017Z,101356.75
2022-08-05T12:25:56.809Z,101345.63
2022-08-05T12:28:37.964Z,101349.91
2022-08-05T12:31:05.607Z,101352.94
2022-08-05T12:33:36.787Z,101357.31
2022-08-05T12:36:07.900Z,101356.69
2022-08-05T12:38:37.853Z,101359.34
2022-08-05T12:41:13.397Z,101366.81
2022-08-05T12:43:55.692Z,101370.47
2022-08-05T12:46:32.848Z,101371.94
2022-08-05T12:49:14.578Z,101378.09
2022-08-05T12:52:13.825Z,101371.09
2022-08-05T12:54:37.088Z,101381.78
2022-08-05T12:57:09.665Z,101376.63
2022-08-05T13:01:56.979Z,101378.50
2022-08-05T13:02:36.062Z,101389.66
2022-08-05T13:05:06.353Z,101380.75
2022-08-05T13:07:59.791Z,101388.94
2022-08-05T13:10:20.483Z,101384.63
2022-08-05T13:12:57.155Z,101390.00
2022-08-05T13:15:41.680Z,101397.19
2022-08-05T13:18:20.057Z,101410.31
2022-08-05T13:20:49.218Z,101407.19
2022-08-05T13:23:18.270Z,101421.72
2022-08-05T13:25:52.663Z,101441.50
2022-08-05T13:28:25.553Z,101440.19
2022-08-05T13:30:53.342Z,101434.56
2022-08-05T13:34:21.749Z,101439.34
2022-08-05T13:36:09.167Z,101445.91
2022-08-05T13:38:42.401Z,101447.56
2022-08-05T13:41:10.908Z,101452.16
2022-08-05T13:43:44.093Z,101450.81
2022-08-05T13:46:12.875Z,101453.28
2022-08-05T13:49:00.331Z,101440.09
2022-08-05T13:51:36.504Z,101461.97
2022-08-05T13:54:03.512Z,101461.97
2022-08-05T13:56:39.519Z,101460.03
2022-08-05T13:59:19.484Z,101467.47
2022-08-05T14:01:56.503Z,101460.56
2022-08-05T14:04:49.660Z,101447.19
2022-08-05T14:07:56.493Z,101459.84
2022-08-05T14:10:04.510Z,101458.94
2022-08-05T14:12:35.499Z,101422.44
2022-08-05T14:15:05.877Z,101464.25
2022-08-05T14:17:48.541Z,101473.72
2022-08-05T14:20:17.651Z,101476.31
2022-08-05T14:22:49.880Z,101470.97
2022-08-05T14:25:21.739Z,101472.44
2022-08-05T14:27:50.846Z,101477.13
2022-08-05T14:30:20.388Z,101475.66
2022-08-05T14:32:48.772Z,101476.47
2022-08-05T14:35:16.156Z,101475.09
2022-08-05T14:37:52.192Z,101470.78
2022-08-05T14:40:21.747Z,101470.88
2022-08-05T14:42:51.187Z,101477.28
2022-08-05T14:45:18.417Z,101456.69
2022-08-05T14:48:03.805Z,101470.38
2022-08-05T14:50:31.644Z,101467.59
2022-08-05T14:52:59.599Z,101467.22
2022-08-05T14:55:28.728Z,101469.19
2022-08-05T14:58:11.418Z,101467.88
2022-08-05T15:00:39.775Z,101467.25
2022-08-05T15:03:25.700Z,101455.91
2022-08-05T15:06:07.757Z,101461.53
2022-08-05T15:08:59.315Z,101472.19
2022-08-05T15:11:51.573Z,101467.13
2022-08-05T15:14:11.945Z,101465.59
2022-08-05T15:16:58.463Z,101470.47
2022-08-05T15:19:26.103Z,101472.19
2022-08-05T15:21:52.692Z,101477.69
2022-08-05T15:24:19.201Z,101473.16
2022-08-05T15:26:46.630Z,101471.38
2022-08-05T15:29:15.189Z,101483.88
2022-08-05T15:31:41.757Z,101469.97
2022-08-05T15:34:31.578Z,101473.03
2022-08-05T15:36:54.720Z,101474.31
2022-08-05T15:41:03.338Z,101470.63
2022-08-05T15:42:53.514Z,101466.22
2022-08-05T15:44:55.002Z,101470.84
2022-08-05T15:47:22.558Z,101474.63
2022-08-05T15:49:58.663Z,101481.88
2022-08-05T15:52:52.664Z,101469.88
2022-08-05T15:55:15.451Z,101471.84
2022-08-05T15:57:43.725Z,101464.59
2022-08-05T16:00:12.129Z,101487.03
2022-08-05T16:02:39.023Z,101489.31
2022-08-05T16:05:09.695Z,101491.25
2022-08-05T16:07:38.026Z,101489.16
2022-08-05T16:10:12.951Z,101500.41
2022-08-05T16:12:39.904Z,101468.25
2022-08-05T16:15:06.770Z,101484.44
2022-08-05T16:17:36.128Z,101493.81
2022-08-05T16:20:11.226Z,101479.22
2022-08-05T16:22:38.776Z,101495.56
2022-08-05T16:25:08.170Z,101505.56
2022-08-05T16:27:59.791Z,101486.56
2022-08-05T16:30:26.686Z,101507.34
2022-08-05T16:32:55.800Z,101517.91
2022-08-05T16:35:27.747Z,101517.53
2022-08-05T16:38:15.603Z,101515.41
2022-08-05T16:40:42.176Z,101526.63
2022-08-05T16:43:16.473Z,101528.19
2022-08-05T16:46:05.101Z,101530.84
2022-08-05T16:48:33.431Z,101531.53
2022-08-05T16:51:00.660Z,101536.00
2022-08-05T16:54:02.055Z,101545.19
2022-08-05T16:56:13.629Z,101542.81
2022-08-05T16:58:40.780Z,101546.31
2022-08-05T17:01:09.376Z,101550.53
2022-08-05T17:03:37.285Z,101549.16
2022-08-05T17:06:05.774Z,101550.19
2022-08-05T17:08:52.059Z,101563.97
2022-08-05T17:11:20.446Z,101563.13
2022-08-05T17:13:50.815Z,101565.44
2022-08-05T17:16:32.833Z,101568.47
2022-08-05T17:19:00.833Z,101568.28
2022-08-05T17:21:35.421Z,101576.16
2022-08-05T17:24:19.634Z,101575.19
2022-08-05T17:26:50.777Z,101573.69
2022-08-05T17:29:17.311Z,101576.69
2022-08-05T17:31:58.206Z,101586.34
2022-08-05T17:34:29.812Z,101581.47
2022-08-05T17:36:58.421Z,101569.94
2022-08-05T17:39:33.223Z,101590.53
2022-08-05T17:42:19.608Z,101590.75
2022-08-05T17:44:50.289Z,101586.97
2022-08-05T17:47:21.781Z,101590.22
2022-08-05T17:49:52.095Z,101596.44
2022-08-05T17:52:29.977Z,101598.63
2022-08-05T17:54:56.473Z,101596.50
2022-08-05T17:57:23.192Z,101586.44
2022-08-05T18:00:04.872Z,101608.19
2022-08-05T18:02:34.141Z,101615.00
2022-08-05T18:05:03.152Z,101619.19
2022-08-05T18:07:41.414Z,101623.56
2022-08-05T18:10:14.033Z,101611.34
2022-08-05T18:12:47.463Z,101622.81
2022-08-05T18:15:14.132Z,101634.81
2022-08-05T18:18:00.596Z,101641.13
2022-08-05T18:20:29.503Z,101640.66
2022-08-05T18:22:58.713Z,101642.50
2022-08-05T18:25:36.820Z,101641.06
2022-08-05T18:28:06.164Z,101652.34
2022-08-05T18:30:33.585Z,101659.84
2022-08-05T18:33:01.228Z,101665.00
2022-08-05T18:36:01.269Z,101661.88
2022-08-05T18:38:16.411Z,101675.00
2022-08-05T18:41:53.902Z,101671.50
2022-08-05T18:43:38.383Z,101669.31
2022-08-05T18:46:10.140Z,101675.94
2022-08-05T18:48:41.695Z,101682.25
2022-08-05T18:52:04.972Z,101685.22
2022-08-05T18:54:14.212Z,101666.09
2022-08-05T18:56:40.789Z,101671.09
2022-08-05T18:59:43.523Z,101692.66
2022-08-05T19:01:56.789Z,101695.81
2022-08-05T19:04:24.806Z,101704.38
2022-08-05T19:06:51.665Z,101698.69
2022-08-05T19:09:21.085Z,101718.25
2022-08-05T19:12:00.113Z,101711.59
2022-08-05T19:14:59.171Z,101718.34
2022-08-05T19:17:15.223Z,101698.81
2022-08-05T19:19:47.026Z,101727.72
2022-08-05T19:22:17.348Z,101739.63
2022-08-05T19:24:54.500Z,101719.63
2022-08-05T19:27:22.979Z,101746.47
2022-08-05T19:29:49.967Z,101733.81
2022-08-05T19:32:16.531Z,101751.66
2022-08-05T19:34:55.076Z,101747.53
2022-08-05T19:37:35.097Z,101756.22
2022-08-05T19:40:12.686Z,101759.53
2022-08-05T19:42:41.833Z,101773.22
2022-08-05T19:45:27.458Z,101772.31
2022-08-05T19:47:59.847Z,101776.09
2022-08-05T19:50:26.566Z,101784.81
2022-08-05T19:52:53.051Z,101789.53
2022-08-05T19:56:14.545Z,101736.47
2022-08-05T19:58:28.700Z,101787.69
2022-08-05T20:00:53.784Z,101797.63
2022-08-05T20:03:20.330Z,101803.06
2022-08-05T20:05:51.108Z,101810.59
2022-08-05T20:08:18.547Z,101814.22
2022-08-05T20:10:45.118Z,101818.16
2022-08-05T20:13:16.888Z,101821.69
2022-08-05T20:15:51.961Z,101829.63
2022-08-05T20:18:33.649Z,101829.09
2022-08-05T20:21:04.753Z,101835.81
2022-08-05T20:23:39.226Z,101839.72
2022-08-05T20:26:17.349Z,101855.47
2022-08-05T20:28:53.957Z,101851.47
2022-08-05T20:31:28.748Z,101860.66
2022-08-05T20:34:10.593Z,101863.91
2022-08-05T20:36:39.005Z,101865.31
2022-08-05T20:39:12.867Z,101870.63
2022-08-05T20:41:43.888Z,101866.84
2022-08-05T20:44:16.928Z,101862.94
2022-08-05T20:46:44.997Z,101872.28
2022-08-05T20:49:12.428Z,101869.22
2022-08-05T20:51:39.123Z,101869.38
2022-08-05T20:54:06.439Z,101880.78
2022-08-05T20:56:42.476Z,101872.31
2022-08-05T20:59:14.111Z,101868.00
2022-08-05T21:01:45.775Z,101878.84
2022-08-05T21:04:12.419Z,101886.06
2022-08-05T21:06:45.236Z,101872.28
2022-08-05T21:09:14.350Z,101891.78
2022-08-05T21:12:09.035Z,101896.50
2022-08-05T21:14:34.595Z,101891.59
2022-08-05T21:17:01.700Z,101876.16
2022-08-05T21:19:29.659Z,101896.75
2022-08-05T21:22:14.645Z,101905.22
2022-08-05T21:24:44.366Z,101905.47
2022-08-05T21:27:15.261Z,101900.75
2022-08-05T21:29:43.235Z,101908.69
2022-08-05T21:32:19.895Z,101914.94
2022-08-05T21:34:55.936Z,101919.66
2022-08-05T21:37:33.806Z,101918.34
2022-08-05T21:40:05.834Z,101917.41
2022-08-05T21:42:44.179Z,101917.81
2022-08-05T21:45:24.090Z,101916.25
2022-08-05T21:47:56.355Z,101927.22
2022-08-05T21:50:25.946Z,101917.44
2022-08-05T21:52:52.599Z,101928.41
2022-08-05T21:55:23.724Z,101931.56
2022-08-05T21:58:06.556Z,101919.97
2022-08-05T22:00:33.127Z,101934.72
2022-08-05T22:03:00.544Z,101936.09
2022-08-05T22:05:27.457Z,101934.81
2022-08-05T22:07:59.581Z,101937.25
2022-08-05T22:10:29.055Z,101935.53
2022-08-05T22:12:58.875Z,101946.94
2022-08-05T22:16:01.660Z,101952.31
2022-08-05T22:18:14.500Z,101949.94
2022-08-05T22:20:41.815Z,101944.38
2022-08-05T22:24:01.968Z,101937.16
2022-08-05T22:26:34.324Z,101946.06
2022-08-05T22:29:02.003Z,101943.97
2022-08-05T22:31:30.015Z,101939.47
2022-08-05T22:34:01.079Z,101921.63
2022-08-05T22:36:29.073Z,101949.78
2022-08-05T22:38:55.877Z,101950.97
2022-08-05T22:41:26.395Z,101954.13
2022-08-05T22:44:12.117Z,101951.50
2022-08-05T22:46:40.712Z,101957.03
2022-08-05T22:49:12.161Z,101952.94
2022-08-05T22:52:06.444Z,101978.00
2022-08-05T22:54:36.904Z,101970.25
2022-08-05T22:57:04.984Z,101976.59
2022-08-05T22:59:42.978Z,101977.66
2022-08-05T23:02:13.717Z,101971.09
2022-08-05T23:04:43.637Z,101974.53
2022-08-05T23:07:18.550Z,101969.63
2022-08-05T23:09:53.482Z,101933.03
2022-08-05T23:12:28.654Z,101987.38
2022-08-05T23:14:55.452Z,101994.66
2022-08-05T23:17:34.968Z,101998.88
2022-08-05T23:20:16.522Z,102004.25
2022-08-05T23:22:47.337Z,102000.78
2022-08-05T23:25:51.131Z,101993.72
2022-08-05T23:28:07.032Z,102011.53
2022-08-05T23:30:40.560Z,102018.63
2022-08-05T23:33:21.880Z,102025.56
2022-08-05T23:35:52.678Z,102010.00
2022-08-05T23:38:22.854Z,102030.84
2022-08-05T23:40:50.627Z,102033.69
2022-08-05T23:43:25.648Z,102027.72
2022-08-05T23:46:05.189Z,102010.25
2022-08-05T23:48:47.039Z,102040.41
2022-08-05T23:51:28.289Z,102030.81
2022-08-05T23:54:01.009Z,102030.44
2022-08-05T23:56:27.862Z,102017.94
2022-08-05T23:58:54.373Z,102040.47
